Time;durP1;ratioP1;P1;durP2;ratioP2;P2;SDS_P1;SDS_P2;PMS_P1;PMS_P2;Temp;Humidity;BMP_temperature;BMP_pressure;BME280_temperature;BME280_humidity;BME280_pressure;Samples;Min_cycle;Max_cycle;Signal;HPM_P1;HPM_P2
2022/11/09 00:01:37;;;;;;;24.67;18.13;;;;;;;3.22;100.00;100450.63;1702864;82;21554;-47
2022/11/09 00:04:05;;;;;;;27.37;17.57;;;;;;;3.17;100.00;100450.20;1703305;82;21113;-47
2022/11/09 00:06:31;;;;;;;23.87;17.47;;;;;;;3.13;100.00;100452.47;1702787;82;21068;-47
2022/11/09 00:08:59;;;;;;;21.80;19.00;;;;;;;3.08;100.00;100454.25;1704091;82;21829;-47
2022/11/09 00:11:26;;;;;;;24.70;18.83;;;;;;;3.04;100.00;100458.73;1706169;82;21080;-47
2022/11/09 00:13:52;;;;;;;21.60;16.87;;;;;;;3.02;100.00;100452.53;1704709;82;21219;-47
2022/11/09 00:16:20;;;;;;;20.73;16.67;;;;;;;3.02;100.00;100452.09;1703269;82;21097;-46
2022/11/09 00:18:48;;;;;;;19.83;17.30;;;;;;;3.03;100.00;100451.20;1702227;82;21635;-48
2022/11/09 00:21:18;;;;;;;22.27;17.63;;;;;;;3.05;100.00;100447.20;1704618;82;21330;-47
2022/11/09 00:23:45;;;;;;;25.00;16.90;;;;;;;3.09;100.00;100452.03;1704978;82;21000;-46
2022/11/09 00:26:14;;;;;;;21.23;16.53;;;;;;;3.11;100.00;100449.81;1700956;82;21387;-46
2022/11/09 00:28:42;;;;;;;22.93;17.83;;;;;;;3.13;100.00;100448.03;1702234;82;20990;-47
2022/11/09 00:31:15;;;;;;;19.83;16.63;;;;;;;3.15;100.00;100452.02;1701341;82;21614;-46
2022/11/09 00:33:42;;;;;;;23.53;17.43;;;;;;;-144.06;100.00;116433.64;1704852;82;21882;-48
2022/11/09 06:19:06;;;;;;;12.07;8.70;;;;;;;3.25;100.00;100574.30;1789662;77;28016;-48
2022/11/09 06:21:34;;;;;;;18.53;10.03;;;;;;;3.26;100.00;100592.04;1765458;79;21023;-48
2022/11/09 06:24:00;;;;;;;10.23;8.50;;;;;;;3.32;100.00;100588.00;1768693;78;21948;-48
2022/11/09 06:26:27;;;;;;;14.83;9.13;;;;;;;3.40;100.00;100592.83;1769396;79;21093;-48
2022/11/09 06:28:53;;;;;;;14.23;9.40;;;;;;;3.48;100.00;100595.92;1765139;79;21500;-49
2022/11/09 06:31:20;;;;;;;12.97;10.93;;;;;;;3.58;100.00;100594.94;1767157;78;21035;-49
2022/11/09 06:33:46;;;;;;;16.17;13.63;;;;;;;3.68;100.00;100601.53;1765316;78;21668;-49
2022/11/09 06:36:13;;;;;;;15.10;12.77;;;;;;;3.81;100.00;100603.68;1765939;78;21949;-49
2022/11/09 06:38:39;;;;;;;14.77;13.17;;;;;;;3.95;100.00;100602.23;1763934;79;21070;-49
2022/11/09 06:41:05;;;;;;;13.43;12.03;;;;;;;4.08;100.00;100598.59;1763991;78;21033;-50
2022/11/09 14:17:10;;;;;;;6.47;5.90;;;;;;;9.94;100.00;100476.77;1750300;79;22771;-48
2022/11/09 14:20:26;;;;;;;8.43;7.55;;;;;;;9.85;100.00;100491.88;1731266;80;22477;-50
2022/11/09 14:23:19;;;;;;;10.72;8.78;;;;;;;9.74;100.00;100488.66;1715438;81;22594;-49
2022/11/09 14:26:09;;;;;;;9.38;8.48;;;;;;;9.63;100.00;100487.66;1732543;81;21565;-50
2022/11/09 14:28:54;;;;;;;9.50;8.25;;;;;;;9.56;100.00;100498.19;1732078;81;21124;-50
2022/11/09 14:31:43;;;;;;;10.48;9.48;;;;;;;9.47;100.00;100495.80;1703440;82;21044;-49
2022/11/09 14:34:28;;;;;;;13.70;12.18;;;;;;;9.39;100.00;100492.02;1706983;82;21123;-50
2022/11/09 14:37:13;;;;;;;;;;;;;;;9.31;100.00;100493.19;1702059;82;21955;-51
2022/11/09 14:39:58;;;;;;;11.83;10.63;;;;;;;9.22;100.00;100493.47;1705968;82;21217;-49
2022/11/09 14:42:50;;;;;;;13.95;10.78;;;;;;;9.13;100.00;100501.80;1697698;82;21068;-50
2022/11/09 14:45:35;;;;;;;10.98;8.50;;;;;;;9.03;100.00;100494.02;1702700;82;21078;-49
2022/11/09 14:48:22;;;;;;;9.85;6.92;;;;;;;8.93;100.00;100501.93;1701666;82;21514;-49
2022/11/09 14:51:06;;;;;;;9.88;6.67;;;;;;;8.86;100.00;100499.02;1704310;82;22073;-48
2022/11/09 14:53:51;;;;;;;7.62;6.80;;;;;;;8.80;100.00;100508.59;1700867;82;22013;-50
2022/11/09 14:56:37;;;;;;;13.68;7.90;;;;;;;8.73;100.00;100507.02;1697494;82;21054;-49
2022/11/09 14:59:33;;;;;;;19.17;9.70;;;;;;;8.68;100.00;100499.55;1700065;82;21068;-49
2022/11/09 15:02:20;;;;;;;23.47;9.50;;;;;;;8.63;100.00;100497.01;1702598;82;22166;-50
2022/11/09 15:05:05;;;;;;;15.72;8.48;;;;;;;8.58;100.00;100504.78;1701696;82;21658;-50
2022/11/09 15:07:51;;;;;;;20.40;10.30;;;;;;;8.54;100.00;100506.66;1695659;82;21092;-50
2022/11/09 15:10:36;;;;;;;20.40;10.80;;;;;;;8.49;100.00;100503.23;1704457;82;21109;-50
2022/11/09 15:13:36;;;;;;;25.20;11.03;;;;;;;8.44;100.00;100498.44;1705001;82;21506;-50
2022/11/09 15:16:25;;;;;;;19.12;9.78;;;;;;;8.39;100.00;100499.50;1701419;81;21070;-50
2022/11/09 15:19:29;;;;;;;24.37;10.68;;;;;;;8.32;100.00;100500.14;1713524;82;22001;-48
2022/11/09 15:22:37;;;;;;;25.15;13.18;;;;;;;8.26;100.00;100498.44;1693274;81;21070;-49
2022/11/09 15:25:40;;;;;;;23.52;12.37;;;;;;;8.18;100.00;100505.81;1709623;81;21496;-50
2022/11/09 15:28:26;;;;;;;29.72;13.48;;;;;;;8.12;100.00;100501.97;1705322;81;22393;-49
2022/11/09 15:31:15;;;;;;;24.10;11.78;;;;;;;8.06;100.00;100497.23;1705935;81;21112;-49
2022/11/09 15:34:00;;;;;;;21.25;10.63;;;;;;;8.01;100.00;100495.99;1718468;81;22633;-49
2022/11/09 15:36:48;;;;;;;;;;;;;;;7.95;100.00;100496.16;1706715;81;21097;-50
2022/11/09 15:39:34;;;;;;;13.03;8.83;;;;;;;7.91;100.00;100494.00;1704656;81;20221;-50
2022/11/09 15:42:19;;;;;;;18.00;9.90;;;;;;;7.87;100.00;100494.14;1647776;85;21521;-49
2022/11/09 15:45:05;;;;;;;;;;;;;;;7.84;100.00;100495.09;1684946;83;21065;-50
2022/11/09 15:51:06;;;;;;;12.65;8.18;;;;;;;7.77;100.00;100486.78;1650002;84;20229;-79
2022/11/09 15:53:51;;;;;;;14.73;9.50;;;;;;;7.73;100.00;100486.92;1705507;81;21074;-79
2022/11/09 15:56:36;;;;;;;;;;;;;;;7.71;100.00;100485.61;1707849;81;21083;-77
2022/11/09 15:59:24;;;;;;;13.55;9.60;;;;;;;7.66;100.00;100482.59;1704348;81;20275;-78
2022/11/09 16:02:10;;;;;;;14.55;10.15;;;;;;;7.64;100.00;100496.06;1706930;81;21934;-78
2022/11/09 16:04:54;;;;;;;13.68;10.38;;;;;;;7.60;100.00;100495.70;1708217;81;21062;-76
2022/11/09 16:07:50;;;;;;;13.10;9.55;;;;;;;7.57;100.00;100502.00;1711130;81;21075;-77
2022/11/09 16:10:38;;;;;;;15.65;10.15;;;;;;;7.53;100.00;100499.00;1702517;82;21098;-77
2022/11/09 16:13:23;;;;;;;18.12;12.82;;;;;;;7.50;100.00;100502.19;1704168;81;21034;-78
2022/11/09 16:16:11;;;;;;;19.20;13.25;;;;;;;7.45;100.00;100506.79;1706808;81;21726;-78
2022/11/09 16:18:57;;;;;;;21.40;13.38;;;;;;;7.40;100.00;100498.00;1709385;81;21074;-77
2022/11/09 16:21:42;;;;;;;22.65;12.90;;;;;;;7.37;100.00;100506.09;1708973;83;21090;-76
2022/11/09 16:24:28;;;;;;;31.33;18.12;;;;;;;7.32;100.00;100513.33;1704598;81;21531;-77
2022/11/09 16:27:13;;;;;;;58.13;30.02;;;;;;;7.30;100.00;100509.38;1711197;81;21123;-76
2022/11/09 16:29:57;;;;;;;;;;;;;;;7.27;100.00;100500.52;1709434;81;21813;-76
2022/11/09 16:32:43;;;;;;;41.73;22.90;;;;;;;7.28;100.00;100506.30;1708717;81;20542;-77
2022/11/09 16:35:29;;;;;;;37.90;19.62;;;;;;;7.25;100.00;100503.68;1706505;81;21206;-77
2022/11/09 16:38:13;;;;;;;24.20;14.45;;;;;;;7.24;100.00;100500.12;1708693;82;21067;-76
2022/11/09 16:41:00;;;;;;;20.50;14.10;;;;;;;7.24;100.00;100500.12;1707056;81;21102;-77
2022/11/09 16:43:46;;;;;;;18.10;13.15;;;;;;;7.23;100.00;100498.36;1713397;81;21721;-76
2022/11/09 16:46:33;;;;;;;21.95;14.60;;;;;;;7.20;100.00;100499.33;1706612;81;21533;-77
2022/11/09 16:49:18;;;;;;;17.57;13.28;;;;;;;7.16;100.00;100500.30;1703278;81;21090;-78
2022/11/09 16:52:03;;;;;;;18.37;12.37;;;;;;;7.14;100.00;100501.27;1645881;85;21609;-78
2022/11/09 16:54:48;;;;;;;18.20;12.13;;;;;;;7.10;100.00;100504.45;1702825;81;21050;-78
2022/11/09 16:57:35;;;;;;;22.05;15.60;;;;;;;7.08;100.00;100506.28;1700744;82;22809;-78
2022/11/09 17:00:22;;;;;;;23.32;17.30;;;;;;;7.05;100.00;100508.16;1704380;81;21096;-78
2022/11/09 17:03:06;;;;;;;19.20;16.00;;;;;;;7.02;100.00;100501.07;1672060;83;21091;-78
2022/11/09 17:05:51;;;;;;;25.85;15.72;;;;;;;7.01;100.00;100502.44;1707302;81;21138;-78
2022/11/09 17:08:38;;;;;;;25.02;13.85;;;;;;;7.01;100.00;100502.44;1705579;81;21055;-77
2022/11/09 17:11:24;;;;;;;16.87;13.98;;;;;;;7.00;100.00;100497.54;1705587;82;21114;-77
2022/11/09 17:14:08;;;;;;;;;;;;;;;7.01;100.00;100497.09;1707972;81;21051;-76
2022/11/09 17:16:53;;;;;;;16.15;12.43;;;;;;;7.00;100.00;100496.66;1704415;81;20212;-78
2022/11/09 17:19:39;;;;;;;16.80;13.68;;;;;;;6.97;100.00;100496.75;1711484;81;21569;-77
2022/11/09 17:22:26;;;;;;;19.05;14.90;;;;;;;6.94;100.00;100490.11;1701880;81;21514;-76
2022/11/09 17:25:11;;;;;;;23.70;16.02;;;;;;;6.90;100.00;100487.06;1703921;81;21921;-76
2022/11/09 17:27:56;;;;;;;17.48;14.20;;;;;;;6.86;100.00;100488.05;1670902;83;25915;-77
2022/11/09 17:30:42;;;;;;;19.07;14.58;;;;;;;6.79;100.00;100484.64;1704443;81;21067;-79
2022/11/09 17:33:27;;;;;;;21.15;14.35;;;;;;;6.74;100.00;100478.03;1710246;81;21047;-80
2022/11/09 17:36:12;;;;;;;;;;;;;;;6.69;100.00;100477.71;1708479;81;21066;-80
2022/11/09 17:38:59;;;;;;;19.42;14.03;;;;;;;6.67;100.00;100481.75;1708917;80;21937;-79
2022/11/09 17:41:43;;;;;;;20.37;14.47;;;;;;;6.65;100.00;100480.89;1701237;81;21089;-77
2022/11/09 17:44:28;;;;;;;18.70;14.55;;;;;;;6.62;100.00;100471.61;1709264;81;21156;-78
2022/11/09 17:47:13;;;;;;;;;;;;;;;6.60;100.00;100473.43;1706247;81;21074;-80
2022/11/09 17:49:58;;;;;;;17.70;13.80;;;;;;;6.59;100.00;100468.99;1707876;81;20306;-79
2022/11/09 17:52:43;;;;;;;17.20;13.80;;;;;;;-144.06;100.00;116433.64;1707739;81;21941;-78
